sensor_id;sensor_type;location;lat;lon;timestamp;P1;durP1;ratioP1;P2;durP2;ratioP2
2724;SDS011;1370;52.596;13.112;2023-07-02T00:02:17;2.13;;;2.03;;
2724;SDS011;1370;52.596;13.112;2023-07-02T00:04:44;2.60;;;2.40;;
2724;SDS011;1370;52.596;13.112;2023-07-02T00:07:09;3.70;;;2.23;;
2724;SDS011;1370;52.596;13.112;2023-07-02T00:09:34;2.70;;;2.50;;
2724;SDS011;1370;52.596;13.112;2023-07-02T00:12:00;3.20;;;3.00;;
2724;SDS011;1370;52.596;13.112;2023-07-02T00:14:25;2.60;;;2.40;;
2724;SDS011;1370;52.596;13.112;2023-07-02T00:16:51;2.30;;;2.10;;
2724;SDS011;1370;52.596;13.112;2023-07-02T00:19:16;2.50;;;2.20;;
2724;SDS011;1370;52.596;13.112;2023-07-02T00:21:41;4.93;;;3.00;;
2724;SDS011;1370;52.596;13.112;2023-07-02T00:24:07;3.00;;;2.70;;
2724;SDS011;1370;52.596;13.112;2023-07-02T00:26:36;3.00;;;2.50;;
2724;SDS011;1370;52.596;13.112;2023-07-02T00:29:02;3.20;;;3.00;;
2724;SDS011;1370;52.596;13.112;2023-07-02T00:31:32;2.60;;;2.40;;
2724;SDS011;1370;52.596;13.112;2023-07-02T00:33:58;2.57;;;2.37;;
2724;SDS011;1370;52.596;13.112;2023-07-02T00:36:24;3.00;;;2.53;;
2724;SDS011;1370;52.596;13.112;2023-07-02T00:38:49;3.90;;;3.17;;
2724;SDS011;1370;52.596;13.112;2023-07-02T00:41:14;14.37;;;3.03;;
2724;SDS011;1370;52.596;13.112;2023-07-02T00:43:40;2.40;;;2.20;;
2724;SDS011;1370;52.596;13.112;2023-07-02T00:46:09;6.40;;;2.70;;
2724;SDS011;1370;52.596;13.112;2023-07-02T00:48:38;3.43;;;3.13;;
2724;SDS011;1370;52.596;13.112;2023-07-02T00:51:03;3.10;;;2.90;;
2724;SDS011;1370;52.596;13.112;2023-07-02T00:53:29;3.47;;;3.17;;
2724;SDS011;1370;52.596;13.112;2023-07-02T00:55:54;3.80;;;3.47;;
2724;SDS011;1370;52.596;13.112;2023-07-02T00:58:19;4.10;;;3.40;;
2724;SDS011;1370;52.596;13.112;2023-07-02T01:00:45;4.60;;;3.73;;
2724;SDS011;1370;52.596;13.112;2023-07-02T01:03:11;4.73;;;4.20;;
2724;SDS011;1370;52.596;13.112;2023-07-02T01:05:36;3.90;;;3.70;;
2724;SDS011;1370;52.596;13.112;2023-07-02T01:08:03;3.80;;;3.60;;
2724;SDS011;1370;52.596;13.112;2023-07-02T01:10:31;4.83;;;4.43;;
2724;SDS011;1370;52.596;13.112;2023-07-02T01:12:59;3.80;;;3.50;;
2724;SDS011;1370;52.596;13.112;2023-07-02T01:15:28;3.57;;;3.37;;
2724;SDS011;1370;52.596;13.112;2023-07-02T01:17:53;5.17;;;4.80;;
2724;SDS011;1370;52.596;13.112;2023-07-02T01:20:19;3.97;;;3.77;;
2724;SDS011;1370;52.596;13.112;2023-07-02T01:22:48;4.63;;;4.33;;
2724;SDS011;1370;52.596;13.112;2023-07-02T01:25:16;4.57;;;4.27;;
2724;SDS011;1370;52.596;13.112;2023-07-02T01:27:42;4.60;;;4.30;;
2724;SDS011;1370;52.596;13.112;2023-07-02T01:30:07;4.47;;;4.27;;
2724;SDS011;1370;52.596;13.112;2023-07-02T01:32:34;5.63;;;4.80;;
2724;SDS011;1370;52.596;13.112;2023-07-02T01:34:59;5.67;;;5.17;;
2724;SDS011;1370;52.596;13.112;2023-07-02T01:37:25;5.43;;;5.03;;
2724;SDS011;1370;52.596;13.112;2023-07-02T01:39:51;5.60;;;5.23;;
2724;SDS011;1370;52.596;13.112;2023-07-02T01:42:17;5.63;;;5.30;;
2724;SDS011;1370;52.596;13.112;2023-07-02T01:44:44;6.00;;;5.43;;
2724;SDS011;1370;52.596;13.112;2023-07-02T01:47:10;5.67;;;5.37;;
2724;SDS011;1370;52.596;13.112;2023-07-02T01:49:35;6.70;;;6.10;;
2724;SDS011;1370;52.596;13.112;2023-07-02T01:52:04;10.20;;;6.90;;
2724;SDS011;1370;52.596;13.112;2023-07-02T01:54:30;6.73;;;6.33;;
2724;SDS011;1370;52.596;13.112;2023-07-02T01:56:59;6.80;;;6.20;;
2724;SDS011;1370;52.596;13.112;2023-07-02T01:59:24;7.30;;;6.70;;
2724;SDS011;1370;52.596;13.112;2023-07-02T02:01:50;10.37;;;6.57;;
2724;SDS011;1370;52.596;13.112;2023-07-02T02:04:15;7.33;;;6.60;;
2724;SDS011;1370;52.596;13.112;2023-07-02T02:06:41;10.23;;;7.07;;
2724;SDS011;1370;52.596;13.112;2023-07-02T02:09:06;9.43;;;6.70;;
2724;SDS011;1370;52.596;13.112;2023-07-02T02:11:33;6.30;;;5.80;;
2724;SDS011;1370;52.596;13.112;2023-07-02T02:13:58;7.20;;;6.50;;
2724;SDS011;1370;52.596;13.112;2023-07-02T02:16:26;7.00;;;5.93;;
2724;SDS011;1370;52.596;13.112;2023-07-02T02:18:51;8.33;;;6.63;;
2724;SDS011;1370;52.596;13.112;2023-07-02T02:21:17;7.63;;;6.70;;
2724;SDS011;1370;52.596;13.112;2023-07-02T02:23:43;7.20;;;6.60;;
2724;SDS011;1370;52.596;13.112;2023-07-02T02:26:09;6.70;;;5.97;;
2724;SDS011;1370;52.596;13.112;2023-07-02T02:28:34;6.67;;;6.17;;
2724;SDS011;1370;52.596;13.112;2023-07-02T02:30:59;8.17;;;6.30;;
2724;SDS011;1370;52.596;13.112;2023-07-02T02:33:24;6.63;;;6.20;;
2724;SDS011;1370;52.596;13.112;2023-07-02T02:35:50;6.80;;;6.40;;
2724;SDS011;1370;52.596;13.112;2023-07-02T02:38:15;5.90;;;5.60;;
2724;SDS011;1370;52.596;13.112;2023-07-02T02:40:40;8.63;;;6.90;;
2724;SDS011;1370;52.596;13.112;2023-07-02T02:43:06;6.37;;;5.97;;
2724;SDS011;1370;52.596;13.112;2023-07-02T02:45:31;7.37;;;6.77;;
2724;SDS011;1370;52.596;13.112;2023-07-02T02:47:57;6.23;;;5.80;;
2724;SDS011;1370;52.596;13.112;2023-07-02T02:50:22;6.00;;;5.40;;
2724;SDS011;1370;52.596;13.112;2023-07-02T02:52:47;5.87;;;5.30;;
2724;SDS011;1370;52.596;13.112;2023-07-02T02:55:13;6.17;;;5.63;;
2724;SDS011;1370;52.596;13.112;2023-07-02T02:57:38;9.33;;;6.00;;
2724;SDS011;1370;52.596;13.112;2023-07-02T03:00:04;5.87;;;5.37;;
2724;SDS011;1370;52.596;13.112;2023-07-02T03:02:30;7.10;;;5.80;;
2724;SDS011;1370;52.596;13.112;2023-07-02T03:04:55;6.60;;;6.10;;
2724;SDS011;1370;52.596;13.112;2023-07-02T03:07:21;7.13;;;6.07;;
2724;SDS011;1370;52.596;13.112;2023-07-02T03:09:47;10.33;;;5.90;;
2724;SDS011;1370;52.596;13.112;2023-07-02T03:12:12;6.30;;;5.90;;
2724;SDS011;1370;52.596;13.112;2023-07-02T03:14:38;6.13;;;5.53;;
2724;SDS011;1370;52.596;13.112;2023-07-02T03:17:03;6.90;;;6.40;;
2724;SDS011;1370;52.596;13.112;2023-07-02T03:19:28;5.53;;;5.13;;
2724;SDS011;1370;52.596;13.112;2023-07-02T03:21:54;5.10;;;4.70;;
2724;SDS011;1370;52.596;13.112;2023-07-02T03:24:19;5.83;;;5.43;;
2724;SDS011;1370;52.596;13.112;2023-07-02T03:26:44;14.53;;;6.37;;
2724;SDS011;1370;52.596;13.112;2023-07-02T03:29:10;8.53;;;5.70;;
2724;SDS011;1370;52.596;13.112;2023-07-02T03:31:36;7.00;;;5.43;;
2724;SDS011;1370;52.596;13.112;2023-07-02T03:34:02;6.67;;;6.17;;
2724;SDS011;1370;52.596;13.112;2023-07-02T03:36:29;6.03;;;5.57;;
2724;SDS011;1370;52.596;13.112;2023-07-02T03:38:54;8.23;;;5.33;;
2724;SDS011;1370;52.596;13.112;2023-07-02T03:41:20;5.50;;;4.97;;
2724;SDS011;1370;52.596;13.112;2023-07-02T03:43:45;7.00;;;5.97;;
2724;SDS011;1370;52.596;13.112;2023-07-02T03:46:10;6.40;;;5.90;;
2724;SDS011;1370;52.596;13.112;2023-07-02T03:48:36;5.90;;;5.40;;
2724;SDS011;1370;52.596;13.112;2023-07-02T03:51:01;5.77;;;5.30;;
2724;SDS011;1370;52.596;13.112;2023-07-02T03:53:27;7.80;;;5.20;;
2724;SDS011;1370;52.596;13.112;2023-07-02T03:55:53;10.03;;;5.10;;
2724;SDS011;1370;52.596;13.112;2023-07-02T03:58:18;4.73;;;4.33;;
2724;SDS011;1370;52.596;13.112;2023-07-02T04:00:43;6.10;;;5.30;;
2724;SDS011;1370;52.596;13.112;2023-07-02T04:03:09;5.00;;;4.50;;
2724;SDS011;1370;52.596;13.112;2023-07-02T04:05:34;6.00;;;5.40;;
2724;SDS011;1370;52.596;13.112;2023-07-02T04:07:59;5.30;;;4.80;;
2724;SDS011;1370;52.596;13.112;2023-07-02T04:10:25;6.53;;;5.37;;
2724;SDS011;1370;52.596;13.112;2023-07-02T04:12:50;7.57;;;5.10;;
2724;SDS011;1370;52.596;13.112;2023-07-02T04:15:15;5.97;;;5.17;;
2724;SDS011;1370;52.596;13.112;2023-07-02T04:17:41;6.20;;;5.70;;
2724;SDS011;1370;52.596;13.112;2023-07-02T04:20:06;5.97;;;5.57;;
2724;SDS011;1370;52.596;13.112;2023-07-02T04:22:32;6.27;;;5.30;;
2724;SDS011;1370;52.596;13.112;2023-07-02T04:24:59;8.13;;;5.50;;
2724;SDS011;1370;52.596;13.112;2023-07-02T04:27:24;5.20;;;4.90;;
2724;SDS011;1370;52.596;13.112;2023-07-02T04:29:49;7.03;;;5.73;;
2724;SDS011;1370;52.596;13.112;2023-07-02T04:32:15;5.77;;;5.17;;
2724;SDS011;1370;52.596;13.112;2023-07-02T04:34:40;8.67;;;5.47;;
2724;SDS011;1370;52.596;13.112;2023-07-02T04:37:06;6.33;;;5.60;;
2724;SDS011;1370;52.596;13.112;2023-07-02T04:39:31;9.67;;;4.90;;
2724;SDS011;1370;52.596;13.112;2023-07-02T04:41:57;5.70;;;4.73;;
2724;SDS011;1370;52.596;13.112;2023-07-02T04:44:22;6.50;;;5.43;;
2724;SDS011;1370;52.596;13.112;2023-07-02T04:46:54;5.27;;;4.77;;
2724;SDS011;1370;52.596;13.112;2023-07-02T04:49:20;5.67;;;5.27;;
2724;SDS011;1370;52.596;13.112;2023-07-02T04:51:45;7.63;;;5.20;;
2724;SDS011;1370;52.596;13.112;2023-07-02T04:54:10;5.07;;;4.67;;
2724;SDS011;1370;52.596;13.112;2023-07-02T04:56:36;9.27;;;5.33;;
2724;SDS011;1370;52.596;13.112;2023-07-02T04:59:01;4.97;;;4.47;;
2724;SDS011;1370;52.596;13.112;2023-07-02T05:01:27;5.90;;;5.40;;
2724;SDS011;1370;52.596;13.112;2023-07-02T05:03:53;5.90;;;5.30;;
2724;SDS011;1370;52.596;13.112;2023-07-02T05:06:18;4.30;;;3.90;;
2724;SDS011;1370;52.596;13.112;2023-07-02T05:08:43;6.60;;;5.27;;
2724;SDS011;1370;52.596;13.112;2023-07-02T05:11:09;6.03;;;4.63;;
2724;SDS011;1370;52.596;13.112;2023-07-02T05:13:35;10.10;;;4.70;;
2724;SDS011;1370;52.596;13.112;2023-07-02T05:16:00;6.23;;;4.83;;
2724;SDS011;1370;52.596;13.112;2023-07-02T05:18:25;6.33;;;4.13;;
2724;SDS011;1370;52.596;13.112;2023-07-02T05:20:51;6.40;;;4.70;;
2724;SDS011;1370;52.596;13.112;2023-07-02T05:23:16;5.50;;;4.10;;
2724;SDS011;1370;52.596;13.112;2023-07-02T05:25:41;4.77;;;4.23;;
2724;SDS011;1370;52.596;13.112;2023-07-02T05:28:07;7.53;;;5.77;;
2724;SDS011;1370;52.596;13.112;2023-07-02T05:30:32;6.00;;;5.47;;
2724;SDS011;1370;52.596;13.112;2023-07-02T05:32:57;8.70;;;6.30;;
2724;SDS011;1370;52.596;13.112;2023-07-02T05:35:22;9.10;;;5.30;;
2724;SDS011;1370;52.596;13.112;2023-07-02T05:37:48;4.33;;;3.93;;
2724;SDS011;1370;52.596;13.112;2023-07-02T05:40:13;5.53;;;5.03;;
2724;SDS011;1370;52.596;13.112;2023-07-02T05:42:38;5.77;;;4.23;;
2724;SDS011;1370;52.596;13.112;2023-07-02T05:45:04;5.07;;;3.70;;
2724;SDS011;1370;52.596;13.112;2023-07-02T05:47:29;6.33;;;4.37;;
2724;SDS011;1370;52.596;13.112;2023-07-02T05:49:54;8.07;;;4.80;;
2724;SDS011;1370;52.596;13.112;2023-07-02T05:52:20;4.53;;;4.23;;
2724;SDS011;1370;52.596;13.112;2023-07-02T05:54:45;13.63;;;4.17;;
2724;SDS011;1370;52.596;13.112;2023-07-02T05:57:10;7.67;;;4.70;;
2724;SDS011;1370;52.596;13.112;2023-07-02T05:59:37;13.33;;;5.10;;
2724;SDS011;1370;52.596;13.112;2023-07-02T06:02:03;6.33;;;4.10;;
2724;SDS011;1370;52.596;13.112;2023-07-02T06:04:28;9.77;;;5.53;;
2724;SDS011;1370;52.596;13.112;2023-07-02T06:06:53;4.67;;;4.20;;
2724;SDS011;1370;52.596;13.112;2023-07-02T06:09:18;4.73;;;4.33;;
2724;SDS011;1370;52.596;13.112;2023-07-02T06:11:44;4.63;;;4.23;;
2724;SDS011;1370;52.596;13.112;2023-07-02T06:14:09;8.67;;;4.13;;
2724;SDS011;1370;52.596;13.112;2023-07-02T06:16:34;4.13;;;3.80;;
2724;SDS011;1370;52.596;13.112;2023-07-02T06:19:00;4.50;;;4.13;;
2724;SDS011;1370;52.596;13.112;2023-07-02T06:21:25;7.33;;;3.80;;
2724;SDS011;1370;52.596;13.112;2023-07-02T06:23:54;4.23;;;3.83;;
2724;SDS011;1370;52.596;13.112;2023-07-02T06:26:20;4.70;;;4.30;;
2724;SDS011;1370;52.596;13.112;2023-07-02T06:28:45;6.10;;;4.40;;
2724;SDS011;1370;52.596;13.112;2023-07-02T06:31:10;5.03;;;4.40;;
2724;SDS011;1370;52.596;13.112;2023-07-02T06:33:38;4.63;;;3.87;;
2724;SDS011;1370;52.596;13.112;2023-07-02T06:36:04;5.80;;;4.23;;
2724;SDS011;1370;52.596;13.112;2023-07-02T06:38:29;3.30;;;3.00;;
2724;SDS011;1370;52.596;13.112;2023-07-02T06:40:55;5.60;;;4.30;;
2724;SDS011;1370;52.596;13.112;2023-07-02T06:43:23;3.70;;;3.40;;
2724;SDS011;1370;52.596;13.112;2023-07-02T06:45:48;12.43;;;4.53;;
2724;SDS011;1370;52.596;13.112;2023-07-02T06:48:13;7.03;;;3.70;;
2724;SDS011;1370;52.596;13.112;2023-07-02T06:50:43;4.00;;;3.13;;
2724;SDS011;1370;52.596;13.112;2023-07-02T06:53:09;4.30;;;3.27;;
2724;SDS011;1370;52.596;13.112;2023-07-02T06:55:34;4.30;;;4.00;;
2724;SDS011;1370;52.596;13.112;2023-07-02T06:58:00;5.87;;;3.80;;
2724;SDS011;1370;52.596;13.112;2023-07-02T07:00:25;4.63;;;3.93;;
2724;SDS011;1370;52.596;13.112;2023-07-02T07:02:50;4.50;;;4.13;;
2724;SDS011;1370;52.596;13.112;2023-07-02T07:05:15;5.50;;;4.13;;
2724;SDS011;1370;52.596;13.112;2023-07-02T07:07:41;8.70;;;4.00;;
2724;SDS011;1370;52.596;13.112;2023-07-02T07:10:06;4.40;;;4.00;;
2724;SDS011;1370;52.596;13.112;2023-07-02T07:12:32;4.70;;;3.83;;
2724;SDS011;1370;52.596;13.112;2023-07-02T07:14:58;4.93;;;3.77;;
2724;SDS011;1370;52.596;13.112;2023-07-02T07:17:23;3.37;;;3.00;;
2724;SDS011;1370;52.596;13.112;2023-07-02T07:19:48;9.40;;;4.37;;
2724;SDS011;1370;52.596;13.112;2023-07-02T07:22:14;4.87;;;4.47;;
2724;SDS011;1370;52.596;13.112;2023-07-02T07:24:41;6.87;;;3.40;;
2724;SDS011;1370;52.596;13.112;2023-07-02T07:27:06;4.20;;;3.90;;
2724;SDS011;1370;52.596;13.112;2023-07-02T07:29:31;7.53;;;4.70;;
2724;SDS011;1370;52.596;13.112;2023-07-02T07:31:57;4.23;;;3.47;;
2724;SDS011;1370;52.596;13.112;2023-07-02T07:34:22;5.47;;;3.90;;
2724;SDS011;1370;52.596;13.112;2023-07-02T07:36:47;4.13;;;3.83;;
2724;SDS011;1370;52.596;13.112;2023-07-02T07:39:13;4.87;;;3.83;;
2724;SDS011;1370;52.596;13.112;2023-07-02T07:41:38;3.93;;;3.50;;
2724;SDS011;1370;52.596;13.112;2023-07-02T07:44:03;5.20;;;3.60;;
2724;SDS011;1370;52.596;13.112;2023-07-02T07:46:28;5.90;;;4.13;;
2724;SDS011;1370;52.596;13.112;2023-07-02T07:48:54;8.70;;;4.40;;
2724;SDS011;1370;52.596;13.112;2023-07-02T07:51:19;6.00;;;4.50;;
2724;SDS011;1370;52.596;13.112;2023-07-02T07:53:44;6.23;;;4.17;;
2724;SDS011;1370;52.596;13.112;2023-07-02T07:56:10;5.10;;;4.33;;
2724;SDS011;1370;52.596;13.112;2023-07-02T07:58:35;4.90;;;4.17;;
2724;SDS011;1370;52.596;13.112;2023-07-02T08:01:00;5.00;;;4.53;;
2724;SDS011;1370;52.596;13.112;2023-07-02T08:03:26;10.57;;;5.73;;
2724;SDS011;1370;52.596;13.112;2023-07-02T08:05:51;4.27;;;3.90;;
2724;SDS011;1370;52.596;13.112;2023-07-02T08:08:16;4.53;;;4.13;;
2724;SDS011;1370;52.596;13.112;2023-07-02T08:10:42;6.33;;;4.60;;
2724;SDS011;1370;52.596;13.112;2023-07-02T08:13:07;7.00;;;4.60;;
2724;SDS011;1370;52.596;13.112;2023-07-02T08:15:33;4.53;;;4.23;;
2724;SDS011;1370;52.596;13.112;2023-07-02T08:17:58;4.90;;;4.40;;
2724;SDS011;1370;52.596;13.112;2023-07-02T08:20:24;5.00;;;4.47;;
2724;SDS011;1370;52.596;13.112;2023-07-02T08:22:50;6.20;;;4.50;;
2724;SDS011;1370;52.596;13.112;2023-07-02T08:25:18;4.63;;;4.23;;
2724;SDS011;1370;52.596;13.112;2023-07-02T08:27:44;4.67;;;4.37;;
2724;SDS011;1370;52.596;13.112;2023-07-02T08:30:10;4.80;;;4.20;;
2724;SDS011;1370;52.596;13.112;2023-07-02T08:32:35;5.00;;;4.60;;
2724;SDS011;1370;52.596;13.112;2023-07-02T08:35:01;5.00;;;4.60;;
2724;SDS011;1370;52.596;13.112;2023-07-02T08:37:26;5.80;;;5.20;;
2724;SDS011;1370;52.596;13.112;2023-07-02T08:39:52;6.93;;;4.80;;
2724;SDS011;1370;52.596;13.112;2023-07-02T08:42:19;5.40;;;4.63;;
2724;SDS011;1370;52.596;13.112;2023-07-02T08:44:48;4.63;;;4.20;;
2724;SDS011;1370;52.596;13.112;2023-07-02T08:47:18;8.13;;;5.40;;
2724;SDS011;1370;52.596;13.112;2023-07-02T08:49:43;6.13;;;4.50;;
2724;SDS011;1370;52.596;13.112;2023-07-02T08:52:08;13.63;;;4.50;;
2724;SDS011;1370;52.596;13.112;2023-07-02T08:54:34;8.17;;;5.90;;
2724;SDS011;1370;52.596;13.112;2023-07-02T08:56:59;11.00;;;5.30;;
2724;SDS011;1370;52.596;13.112;2023-07-02T08:59:29;11.03;;;5.43;;
2724;SDS011;1370;52.596;13.112;2023-07-02T09:01:54;9.10;;;6.17;;
2724;SDS011;1370;52.596;13.112;2023-07-02T09:04:21;9.67;;;5.00;;
2724;SDS011;1370;52.596;13.112;2023-07-02T09:06:49;5.67;;;5.17;;
2724;SDS011;1370;52.596;13.112;2023-07-02T09:09:15;9.63;;;5.50;;
2724;SDS011;1370;52.596;13.112;2023-07-02T09:11:50;6.20;;;5.23;;
2724;SDS011;1370;52.596;13.112;2023-07-02T09:14:25;14.00;;;5.53;;
2724;SDS011;1370;52.596;13.112;2023-07-02T09:17:05;7.30;;;4.87;;
2724;SDS011;1370;52.596;13.112;2023-07-02T09:19:31;12.73;;;6.10;;
2724;SDS011;1370;52.596;13.112;2023-07-02T09:21:57;9.40;;;5.87;;
2724;SDS011;1370;52.596;13.112;2023-07-02T09:24:27;14.40;;;5.20;;
2724;SDS011;1370;52.596;13.112;2023-07-02T09:26:57;7.40;;;5.60;;
2724;SDS011;1370;52.596;13.112;2023-07-02T09:29:25;7.50;;;5.30;;
2724;SDS011;1370;52.596;13.112;2023-07-02T09:31:53;10.53;;;6.30;;
2724;SDS011;1370;52.596;13.112;2023-07-02T09:34:19;10.60;;;5.30;;
2724;SDS011;1370;52.596;13.112;2023-07-02T09:36:44;9.23;;;5.80;;
2724;SDS011;1370;52.596;13.112;2023-07-02T09:39:14;7.37;;;6.13;;
2724;SDS011;1370;52.596;13.112;2023-07-02T09:41:42;15.83;;;7.27;;
2724;SDS011;1370;52.596;13.112;2023-07-02T09:44:09;10.30;;;6.30;;
2724;SDS011;1370;52.596;13.112;2023-07-02T09:46:36;8.40;;;6.40;;
2724;SDS011;1370;52.596;13.112;2023-07-02T09:49:02;8.60;;;6.03;;
2724;SDS011;1370;52.596;13.112;2023-07-02T09:51:28;9.10;;;5.87;;
2724;SDS011;1370;52.596;13.112;2023-07-02T09:53:53;13.03;;;7.40;;
2724;SDS011;1370;52.596;13.112;2023-07-02T09:56:19;8.43;;;5.70;;
2724;SDS011;1370;52.596;13.112;2023-07-02T09:58:46;13.33;;;6.63;;
2724;SDS011;1370;52.596;13.112;2023-07-02T10:01:12;14.93;;;6.87;;
2724;SDS011;1370;52.596;13.112;2023-07-02T10:03:37;10.37;;;6.47;;
2724;SDS011;1370;52.596;13.112;2023-07-02T10:06:03;11.93;;;6.30;;
2724;SDS011;1370;52.596;13.112;2023-07-02T10:08:31;15.13;;;7.47;;
2724;SDS011;1370;52.596;13.112;2023-07-02T10:11:12;7.10;;;6.40;;
2724;SDS011;1370;52.596;13.112;2023-07-02T10:13:38;10.07;;;5.93;;
2724;SDS011;1370;52.596;13.112;2023-07-02T10:16:04;7.33;;;6.00;;
2724;SDS011;1370;52.596;13.112;2023-07-02T10:18:30;11.30;;;6.60;;
2724;SDS011;1370;52.596;13.112;2023-07-02T10:20:55;10.60;;;5.80;;
2724;SDS011;1370;52.596;13.112;2023-07-02T10:23:20;12.40;;;7.40;;
2724;SDS011;1370;52.596;13.112;2023-07-02T10:25:58;10.57;;;7.00;;
2724;SDS011;1370;52.596;13.112;2023-07-02T10:28:23;13.70;;;7.60;;
2724;SDS011;1370;52.596;13.112;2023-07-02T10:30:51;25.20;;;8.33;;
2724;SDS011;1370;52.596;13.112;2023-07-02T10:33:18;11.90;;;8.17;;
2724;SDS011;1370;52.596;13.112;2023-07-02T10:35:44;12.03;;;6.20;;
2724;SDS011;1370;52.596;13.112;2023-07-02T10:38:20;7.97;;;6.70;;
2724;SDS011;1370;52.596;13.112;2023-07-02T10:40:46;13.60;;;7.33;;
2724;SDS011;1370;52.596;13.112;2023-07-02T10:43:11;15.30;;;5.80;;
2724;SDS011;1370;52.596;13.112;2023-07-02T10:45:37;15.90;;;7.53;;
2724;SDS011;1370;52.596;13.112;2023-07-02T10:48:02;11.20;;;7.23;;
2724;SDS011;1370;52.596;13.112;2023-07-02T10:50:29;14.10;;;8.73;;
2724;SDS011;1370;52.596;13.112;2023-07-02T10:52:55;19.40;;;8.00;;
2724;SDS011;1370;52.596;13.112;2023-07-02T10:55:21;20.73;;;6.50;;
2724;SDS011;1370;52.596;13.112;2023-07-02T10:57:50;18.50;;;8.00;;
2724;SDS011;1370;52.596;13.112;2023-07-02T11:00:16;17.30;;;8.03;;
2724;SDS011;1370;52.596;13.112;2023-07-02T11:02:42;15.57;;;6.43;;
2724;SDS011;1370;52.596;13.112;2023-07-02T11:05:07;10.07;;;6.23;;
2724;SDS011;1370;52.596;13.112;2023-07-02T11:07:40;10.03;;;7.20;;
2724;SDS011;1370;52.596;13.112;2023-07-02T11:10:08;20.23;;;8.03;;
2724;SDS011;1370;52.596;13.112;2023-07-02T11:12:34;13.67;;;7.50;;
2724;SDS011;1370;52.596;13.112;2023-07-02T11:15:09;15.47;;;6.80;;
2724;SDS011;1370;52.596;13.112;2023-07-02T11:17:35;13.10;;;6.40;;
2724;SDS011;1370;52.596;13.112;2023-07-02T11:20:01;9.50;;;6.90;;
2724;SDS011;1370;52.596;13.112;2023-07-02T11:22:32;9.00;;;7.47;;
2724;SDS011;1370;52.596;13.112;2023-07-02T11:25:07;16.63;;;7.57;;
2724;SDS011;1370;52.596;13.112;2023-07-02T11:27:41;12.90;;;6.20;;
2724;SDS011;1370;52.596;13.112;2023-07-02T11:30:06;14.07;;;6.83;;
2724;SDS011;1370;52.596;13.112;2023-07-02T11:32:35;17.70;;;8.87;;
2724;SDS011;1370;52.596;13.112;2023-07-02T11:35:12;13.13;;;7.03;;
2724;SDS011;1370;52.596;13.112;2023-07-02T11:37:37;14.30;;;8.10;;
2724;SDS011;1370;52.596;13.112;2023-07-02T11:40:02;14.30;;;7.60;;
2724;SDS011;1370;52.596;13.112;2023-07-02T11:42:29;17.40;;;8.33;;
2724;SDS011;1370;52.596;13.112;2023-07-02T11:44:55;12.07;;;8.20;;
2724;SDS011;1370;52.596;13.112;2023-07-02T11:47:20;17.37;;;8.70;;
2724;SDS011;1370;52.596;13.112;2023-07-02T11:49:45;11.40;;;7.47;;
2724;SDS011;1370;52.596;13.112;2023-07-02T11:52:11;17.17;;;7.77;;
2724;SDS011;1370;52.596;13.112;2023-07-02T11:54:37;11.83;;;7.80;;
2724;SDS011;1370;52.596;13.112;2023-07-02T11:57:03;9.40;;;8.30;;
2724;SDS011;1370;52.596;13.112;2023-07-02T11:59:28;16.90;;;7.57;;
2724;SDS011;1370;52.596;13.112;2023-07-02T12:01:54;12.80;;;7.67;;
2724;SDS011;1370;52.596;13.112;2023-07-02T12:04:19;14.33;;;6.80;;
2724;SDS011;1370;52.596;13.112;2023-07-02T12:06:44;14.40;;;7.20;;
2724;SDS011;1370;52.596;13.112;2023-07-02T12:09:10;10.97;;;7.40;;
2724;SDS011;1370;52.596;13.112;2023-07-02T12:11:36;9.80;;;6.30;;
2724;SDS011;1370;52.596;13.112;2023-07-02T12:14:01;8.57;;;7.07;;
2724;SDS011;1370;52.596;13.112;2023-07-02T12:16:26;17.50;;;7.13;;
2724;SDS011;1370;52.596;13.112;2023-07-02T12:18:51;12.30;;;8.57;;
2724;SDS011;1370;52.596;13.112;2023-07-02T12:21:17;14.60;;;7.27;;
2724;SDS011;1370;52.596;13.112;2023-07-02T12:23:43;17.67;;;7.03;;
2724;SDS011;1370;52.596;13.112;2023-07-02T12:26:08;9.77;;;7.30;;
2724;SDS011;1370;52.596;13.112;2023-07-02T12:28:34;12.53;;;7.00;;
2724;SDS011;1370;52.596;13.112;2023-07-02T12:30:59;13.83;;;7.40;;
2724;SDS011;1370;52.596;13.112;2023-07-02T12:33:24;12.13;;;7.60;;
2724;SDS011;1370;52.596;13.112;2023-07-02T12:35:49;10.40;;;7.83;;
2724;SDS011;1370;52.596;13.112;2023-07-02T12:38:15;13.73;;;7.70;;
2724;SDS011;1370;52.596;13.112;2023-07-02T12:40:40;16.47;;;7.47;;
2724;SDS011;1370;52.596;13.112;2023-07-02T12:43:05;14.30;;;7.43;;
2724;SDS011;1370;52.596;13.112;2023-07-02T12:45:31;13.10;;;8.13;;
2724;SDS011;1370;52.596;13.112;2023-07-02T12:47:56;16.97;;;7.73;;
2724;SDS011;1370;52.596;13.112;2023-07-02T12:50:21;13.63;;;7.50;;
2724;SDS011;1370;52.596;13.112;2023-07-02T12:52:47;12.57;;;8.50;;
2724;SDS011;1370;52.596;13.112;2023-07-02T12:55:12;13.47;;;8.53;;
2724;SDS011;1370;52.596;13.112;2023-07-02T12:57:38;12.50;;;7.60;;
2724;SDS011;1370;52.596;13.112;2023-07-02T13:00:03;11.33;;;7.97;;
2724;SDS011;1370;52.596;13.112;2023-07-02T13:02:31;12.50;;;7.20;;
2724;SDS011;1370;52.596;13.112;2023-07-02T13:04:56;13.27;;;7.10;;
2724;SDS011;1370;52.596;13.112;2023-07-02T13:07:21;15.47;;;6.87;;
2724;SDS011;1370;52.596;13.112;2023-07-02T13:09:48;17.93;;;7.47;;
2724;SDS011;1370;52.596;13.112;2023-07-02T13:12:14;15.80;;;7.50;;
2724;SDS011;1370;52.596;13.112;2023-07-02T13:14:39;16.67;;;7.60;;
2724;SDS011;1370;52.596;13.112;2023-07-02T13:17:04;12.73;;;7.80;;
2724;SDS011;1370;52.596;13.112;2023-07-02T13:19:30;12.60;;;8.33;;
2724;SDS011;1370;52.596;13.112;2023-07-02T13:21:56;11.83;;;6.93;;
2724;SDS011;1370;52.596;13.112;2023-07-02T13:24:21;11.27;;;8.20;;
2724;SDS011;1370;52.596;13.112;2023-07-02T13:26:46;10.10;;;7.87;;
2724;SDS011;1370;52.596;13.112;2023-07-02T13:29:12;11.97;;;8.20;;
2724;SDS011;1370;52.596;13.112;2023-07-02T13:31:37;17.27;;;8.60;;
2724;SDS011;1370;52.596;13.112;2023-07-02T13:34:02;12.90;;;8.33;;
2724;SDS011;1370;52.596;13.112;2023-07-02T13:36:27;10.53;;;7.27;;
2724;SDS011;1370;52.596;13.112;2023-07-02T13:38:55;9.37;;;6.43;;
2724;SDS011;1370;52.596;13.112;2023-07-02T13:41:21;11.97;;;7.07;;
2724;SDS011;1370;52.596;13.112;2023-07-02T13:43:46;14.67;;;7.30;;
2724;SDS011;1370;52.596;13.112;2023-07-02T13:46:11;21.40;;;8.40;;
2724;SDS011;1370;52.596;13.112;2023-07-02T13:48:37;11.17;;;7.50;;
2724;SDS011;1370;52.596;13.112;2023-07-02T13:51:02;11.40;;;7.57;;
2724;SDS011;1370;52.596;13.112;2023-07-02T13:53:28;11.23;;;7.60;;
2724;SDS011;1370;52.596;13.112;2023-07-02T13:55:53;13.70;;;6.40;;
2724;SDS011;1370;52.596;13.112;2023-07-02T13:58:18;10.50;;;6.70;;
2724;SDS011;1370;52.596;13.112;2023-07-02T14:00:43;9.40;;;7.00;;
2724;SDS011;1370;52.596;13.112;2023-07-02T14:03:09;8.20;;;7.30;;
2724;SDS011;1370;52.596;13.112;2023-07-02T14:05:34;10.07;;;6.67;;
2724;SDS011;1370;52.596;13.112;2023-07-02T14:07:59;14.03;;;7.90;;
2724;SDS011;1370;52.596;13.112;2023-07-02T14:10:24;20.07;;;8.60;;
2724;SDS011;1370;52.596;13.112;2023-07-02T14:12:50;15.80;;;7.07;;
2724;SDS011;1370;52.596;13.112;2023-07-02T14:15:15;13.73;;;7.57;;
2724;SDS011;1370;52.596;13.112;2023-07-02T14:17:40;11.60;;;7.83;;
2724;SDS011;1370;52.596;13.112;2023-07-02T14:20:07;13.30;;;6.83;;
2724;SDS011;1370;52.596;13.112;2023-07-02T14:22:32;14.30;;;7.60;;
2724;SDS011;1370;52.596;13.112;2023-07-02T14:24:58;10.30;;;6.67;;
2724;SDS011;1370;52.596;13.112;2023-07-02T14:27:23;16.43;;;8.70;;
2724;SDS011;1370;52.596;13.112;2023-07-02T14:29:48;12.23;;;6.70;;
2724;SDS011;1370;52.596;13.112;2023-07-02T14:32:14;20.03;;;8.20;;
2724;SDS011;1370;52.596;13.112;2023-07-02T14:34:39;17.30;;;7.53;;
2724;SDS011;1370;52.596;13.112;2023-07-02T14:37:05;13.27;;;8.10;;
2724;SDS011;1370;52.596;13.112;2023-07-02T14:39:30;9.40;;;7.33;;
2724;SDS011;1370;52.596;13.112;2023-07-02T14:41:56;13.00;;;7.50;;
2724;SDS011;1370;52.596;13.112;2023-07-02T14:44:21;12.13;;;6.70;;
2724;SDS011;1370;52.596;13.112;2023-07-02T14:46:46;16.60;;;9.23;;
2724;SDS011;1370;52.596;13.112;2023-07-02T14:49:12;12.57;;;6.40;;